sensor_id;sensor_type;location;lat;lon;timestamp;pressure;altitude;pressure_sealevel;temperature;humidity
38227;BME280;24026;49.446;8.576;2023-06-10T00:01:33;100115.66;;;25.81;36.01
38227;BME280;24026;49.446;8.576;2023-06-10T00:03:56;100117.59;;;25.81;36.09
38227;BME280;24026;49.446;8.576;2023-06-10T00:06:17;100118.75;;;25.80;35.91
38227;BME280;24026;49.446;8.576;2023-06-10T00:08:38;100120.66;;;25.79;35.96
38227;BME280;24026;49.446;8.576;2023-06-10T00:10:59;100127.25;;;25.78;36.32
38227;BME280;24026;49.446;8.576;2023-06-10T00:13:20;100123.75;;;25.78;35.98
38227;BME280;24026;49.446;8.576;2023-06-10T00:15:41;100115.13;;;25.76;36.22
38227;BME280;24026;49.446;8.576;2023-06-10T00:18:01;100123.28;;;25.76;36.27
38227;BME280;24026;49.446;8.576;2023-06-10T00:20:22;100123.63;;;25.74;36.22
38227;BME280;24026;49.446;8.576;2023-06-10T00:22:43;100115.81;;;25.73;36.38
38227;BME280;24026;49.446;8.576;2023-06-10T00:25:06;100121.25;;;25.73;36.01
38227;BME280;24026;49.446;8.576;2023-06-10T00:27:27;100120.47;;;25.72;36.30
38227;BME280;24026;49.446;8.576;2023-06-10T00:29:51;100124.72;;;25.69;36.35
38227;BME280;24026;49.446;8.576;2023-06-10T00:32:11;100115.75;;;25.69;36.51
38227;BME280;24026;49.446;8.576;2023-06-10T00:34:32;100120.41;;;25.68;36.22
38227;BME280;24026;49.446;8.576;2023-06-10T00:36:52;100115.31;;;25.67;36.50
38227;BME280;24026;49.446;8.576;2023-06-10T00:39:12;100116.44;;;25.66;36.34
38227;BME280;24026;49.446;8.576;2023-06-10T00:41:33;100118.38;;;25.65;36.42
38227;BME280;24026;49.446;8.576;2023-06-10T00:43:54;100124.97;;;25.64;36.33
38227;BME280;24026;49.446;8.576;2023-06-10T00:46:14;100118.72;;;25.64;36.32
38227;BME280;24026;49.446;8.576;2023-06-10T00:48:35;100125.31;;;25.63;36.31
38227;BME280;24026;49.446;8.576;2023-06-10T00:50:56;100127.22;;;25.62;36.61
38227;BME280;24026;49.446;8.576;2023-06-10T00:53:18;100128.38;;;25.61;36.36
38227;BME280;24026;49.446;8.576;2023-06-10T00:55:40;100121.34;;;25.60;36.49
38227;BME280;24026;49.446;8.576;2023-06-10T00:58:01;100134.53;;;25.58;36.51
38227;BME280;24026;49.446;8.576;2023-06-10T01:00:21;100122.84;;;25.58;36.58
38227;BME280;24026;49.446;8.576;2023-06-10T01:02:42;100123.19;;;25.56;36.45
38227;BME280;24026;49.446;8.576;2023-06-10T01:05:02;100127.84;;;25.56;36.52
38227;BME280;24026;49.446;8.576;2023-06-10T01:07:27;100128.66;;;25.56;36.34
38227;BME280;24026;49.446;8.576;2023-06-10T01:12:33;100129.34;;;25.53;36.50
38227;BME280;24026;49.446;8.576;2023-06-10T01:14:55;100131.63;;;25.51;36.42
38227;BME280;24026;49.446;8.576;2023-06-10T01:17:15;100133.53;;;25.50;36.48
38227;BME280;24026;49.446;8.576;2023-06-10T01:19:37;100142.84;;;25.49;36.56
38227;BME280;24026;49.446;8.576;2023-06-10T01:21:57;100129.25;;;25.49;36.75
38227;BME280;24026;49.446;8.576;2023-06-10T01:24:20;100136.59;;;25.49;36.77
38227;BME280;24026;49.446;8.576;2023-06-10T01:26:42;100132.31;;;25.48;36.71
38227;BME280;24026;49.446;8.576;2023-06-10T01:29:09;100131.50;;;25.47;36.56
38227;BME280;24026;49.446;8.576;2023-06-10T01:32:12;100143.88;;;25.45;36.54
38227;BME280;24026;49.446;8.576;2023-06-10T01:34:32;100143.88;;;25.45;36.62
38227;BME280;24026;49.446;8.576;2023-06-10T01:36:55;100137.66;;;25.44;36.69
38227;BME280;24026;49.446;8.576;2023-06-10T01:39:20;100136.84;;;25.44;36.83
38227;BME280;24026;49.446;8.576;2023-06-10T01:41:43;100134.47;;;25.42;36.87
38227;BME280;24026;49.446;8.576;2023-06-10T01:44:03;100140.72;;;25.43;36.72
38227;BME280;24026;49.446;8.576;2023-06-10T01:46:24;100138.34;;;25.41;36.64
38227;BME280;24026;49.446;8.576;2023-06-10T01:48:44;100146.84;;;25.40;36.54
38227;BME280;24026;49.446;8.576;2023-06-10T01:51:05;100141.41;;;25.40;36.64
38227;BME280;24026;49.446;8.576;2023-06-10T01:53:25;100144.47;;;25.38;36.49
38227;BME280;24026;49.446;8.576;2023-06-10T01:55:46;100141.00;;;25.38;36.78
38227;BME280;24026;49.446;8.576;2023-06-10T01:58:06;100140.53;;;25.36;36.48
38227;BME280;24026;49.446;8.576;2023-06-10T02:00:26;100133.50;;;25.35;36.70
38227;BME280;24026;49.446;8.576;2023-06-10T02:02:47;100142.03;;;25.33;36.78
38227;BME280;24026;49.446;8.576;2023-06-10T02:05:07;100136.16;;;25.31;36.86
38227;BME280;24026;49.446;8.576;2023-06-10T02:07:28;100136.16;;;25.31;36.74
38227;BME280;24026;49.446;8.576;2023-06-10T02:09:48;100139.22;;;25.29;36.70
38227;BME280;24026;49.446;8.576;2023-06-10T02:12:09;100135.69;;;25.29;36.83
38227;BME280;24026;49.446;8.576;2023-06-10T02:14:32;100143.06;;;25.28;36.78
38227;BME280;24026;49.446;8.576;2023-06-10T02:16:52;100141.47;;;25.27;36.86
38227;BME280;24026;49.446;8.576;2023-06-10T02:19:16;100142.94;;;25.25;37.08
38227;BME280;24026;49.446;8.576;2023-06-10T02:21:37;100142.16;;;25.24;36.94
38227;BME280;24026;49.446;8.576;2023-06-10T02:23:58;100141.69;;;25.22;36.86
38227;BME280;24026;49.446;8.576;2023-06-10T02:26:18;100141.69;;;25.22;36.89
38227;BME280;24026;49.446;8.576;2023-06-10T02:28:42;100147.47;;;25.21;37.12
38227;BME280;24026;49.446;8.576;2023-06-10T02:31:02;100148.63;;;25.20;37.17
38227;BME280;24026;49.446;8.576;2023-06-10T02:33:23;100146.25;;;25.18;36.87
38227;BME280;24026;49.446;8.576;2023-06-10T02:35:44;100141.94;;;25.17;37.12
38227;BME280;24026;49.446;8.576;2023-06-10T02:38:05;100143.09;;;25.16;37.24
38227;BME280;24026;49.446;8.576;2023-06-10T02:40:25;100149.66;;;25.15;37.00
38227;BME280;24026;49.446;8.576;2023-06-10T02:42:46;100151.94;;;25.13;37.13
38227;BME280;24026;49.446;8.576;2023-06-10T02:45:07;100151.13;;;25.12;37.36
38227;BME280;24026;49.446;8.576;2023-06-10T02:47:27;100150.34;;;25.12;37.20
38227;BME280;24026;49.446;8.576;2023-06-10T02:49:48;100153.41;;;25.10;37.08
38227;BME280;24026;49.446;8.576;2023-06-10T02:52:08;100152.63;;;25.10;37.06
38227;BME280;24026;49.446;8.576;2023-06-10T02:54:28;100156.81;;;25.07;37.23
38227;BME280;24026;49.446;8.576;2023-06-10T02:56:49;100163.84;;;25.08;37.12
38227;BME280;24026;49.446;8.576;2023-06-10T02:59:09;100161.44;;;25.07;37.36
38227;BME280;24026;49.446;8.576;2023-06-10T03:01:30;100152.50;;;25.06;37.24
38227;BME280;24026;49.446;8.576;2023-06-10T03:03:51;100156.38;;;25.05;37.34
38227;BME280;24026;49.446;8.576;2023-06-10T03:06:13;100155.59;;;25.05;37.19
38227;BME280;24026;49.446;8.576;2023-06-10T03:08:34;100164.84;;;25.04;37.37
38227;BME280;24026;49.446;8.576;2023-06-10T03:10:54;100165.19;;;25.02;37.38
38227;BME280;24026;49.446;8.576;2023-06-10T03:13:14;100163.63;;;25.01;37.27
38227;BME280;24026;49.446;8.576;2023-06-10T03:15:35;100162.03;;;25.00;37.48
38227;BME280;24026;49.446;8.576;2023-06-10T03:17:56;100163.97;;;25.00;37.40
38227;BME280;24026;49.446;8.576;2023-06-10T03:20:16;100175.97;;;24.99;37.49
38227;BME280;24026;49.446;8.576;2023-06-10T03:22:37;100168.97;;;24.98;37.52
38227;BME280;24026;49.446;8.576;2023-06-10T03:24:58;100172.81;;;24.96;37.63
38227;BME280;24026;49.446;8.576;2023-06-10T03:27:19;100180.97;;;24.96;37.42
38227;BME280;24026;49.446;8.576;2023-06-10T03:29:40;100177.81;;;24.94;37.44
38227;BME280;24026;49.446;8.576;2023-06-10T03:32:01;100177.81;;;24.94;37.58
38227;BME280;24026;49.446;8.576;2023-06-10T03:34:21;100181.66;;;24.93;37.69
38227;BME280;24026;49.446;8.576;2023-06-10T03:36:41;100175.00;;;24.91;37.56
38227;BME280;24026;49.446;8.576;2023-06-10T03:39:03;100188.59;;;24.91;37.65
38227;BME280;24026;49.446;8.576;2023-06-10T03:41:23;100182.34;;;24.90;37.70
38227;BME280;24026;49.446;8.576;2023-06-10T03:43:43;100182.66;;;24.89;37.46
38227;BME280;24026;49.446;8.576;2023-06-10T03:46:04;100185.38;;;24.89;37.62
38227;BME280;24026;49.446;8.576;2023-06-10T03:48:25;100181.09;;;24.88;37.85
38227;BME280;24026;49.446;8.576;2023-06-10T03:50:45;100193.09;;;24.87;37.63
38227;BME280;24026;49.446;8.576;2023-06-10T03:53:07;100186.88;;;24.86;37.86
38227;BME280;24026;49.446;8.576;2023-06-10T03:55:28;100188.78;;;24.86;37.63
38227;BME280;24026;49.446;8.576;2023-06-10T03:57:49;100181.78;;;24.85;37.73
38227;BME280;24026;49.446;8.576;2023-06-10T04:00:10;100190.72;;;24.85;37.80
38227;BME280;24026;49.446;8.576;2023-06-10T04:02:32;100196.50;;;24.84;37.74
38227;BME280;24026;49.446;8.576;2023-06-10T04:04:52;100182.13;;;24.83;37.81
38227;BME280;24026;49.446;8.576;2023-06-10T04:07:13;100191.41;;;24.82;37.84
38227;BME280;24026;49.446;8.576;2023-06-10T04:09:34;100184.41;;;24.81;37.64
38227;BME280;24026;49.446;8.576;2023-06-10T04:11:55;100190.97;;;24.80;37.86
38227;BME280;24026;49.446;8.576;2023-06-10T04:14:16;100182.81;;;24.80;37.94
38227;BME280;24026;49.446;8.576;2023-06-10T04:16:37;100188.25;;;24.80;37.61
38227;BME280;24026;49.446;8.576;2023-06-10T04:18:59;100190.19;;;24.80;37.81
38227;BME280;24026;49.446;8.576;2023-06-10T04:21:20;100194.81;;;24.79;37.96
38227;BME280;24026;49.446;8.576;2023-06-10T04:23:41;100196.75;;;24.78;37.86
38227;BME280;24026;49.446;8.576;2023-06-10T04:26:02;100197.88;;;24.77;37.79
38227;BME280;24026;49.446;8.576;2023-06-10T04:28:22;100200.59;;;24.77;37.91
38227;BME280;24026;49.446;8.576;2023-06-10T04:30:43;100202.50;;;24.77;37.73
38227;BME280;24026;49.446;8.576;2023-06-10T04:33:05;100199.78;;;24.77;37.65
38227;BME280;24026;49.446;8.576;2023-06-10T04:35:27;100202.50;;;24.77;37.94
38227;BME280;24026;49.446;8.576;2023-06-10T04:37:47;100205.22;;;24.77;37.90
38227;BME280;24026;49.446;8.576;2023-06-10T04:40:08;100206.03;;;24.77;37.89
38227;BME280;24026;49.446;8.576;2023-06-10T04:42:29;100204.44;;;24.76;37.98
38227;BME280;24026;49.446;8.576;2023-06-10T04:44:49;100206.38;;;24.76;37.97
38227;BME280;24026;49.446;8.576;2023-06-10T04:47:09;100203.66;;;24.76;38.05
38227;BME280;24026;49.446;8.576;2023-06-10T04:49:30;100200.94;;;24.76;37.78
38227;BME280;24026;49.446;8.576;2023-06-10T04:51:51;100213.38;;;24.77;37.92
38227;BME280;24026;49.446;8.576;2023-06-10T04:54:11;100206.03;;;24.77;37.80
38227;BME280;24026;49.446;8.576;2023-06-10T04:56:32;100203.66;;;24.76;37.90
38227;BME280;24026;49.446;8.576;2023-06-10T04:58:52;100211.81;;;24.76;37.83
38227;BME280;24026;49.446;8.576;2023-06-10T05:01:13;100206.38;;;24.76;37.75
38227;BME280;24026;49.446;8.576;2023-06-10T05:03:33;100210.66;;;24.77;37.84
38227;BME280;24026;49.446;8.576;2023-06-10T05:05:54;100207.16;;;24.76;37.80
38227;BME280;24026;49.446;8.576;2023-06-10T05:08:14;100214.97;;;24.78;37.90
38227;BME280;24026;49.446;8.576;2023-06-10T05:10:34;100218.47;;;24.78;37.77
38227;BME280;24026;49.446;8.576;2023-06-10T05:12:55;100220.06;;;24.80;37.86
38227;BME280;24026;49.446;8.576;2023-06-10T05:15:15;100221.19;;;24.78;37.91
38227;BME280;24026;49.446;8.576;2023-06-10T05:17:36;100220.84;;;24.80;37.86
38227;BME280;24026;49.446;8.576;2023-06-10T05:19:56;100227.88;;;24.81;37.73
38227;BME280;24026;49.446;8.576;2023-06-10T05:22:17;100229.78;;;24.81;37.80
38227;BME280;24026;49.446;8.576;2023-06-10T05:24:38;100226.72;;;24.82;37.73
38227;BME280;24026;49.446;8.576;2023-06-10T05:26:59;100232.16;;;24.82;37.94
38227;BME280;24026;49.446;8.576;2023-06-10T05:29:20;100229.09;;;24.84;37.65
38227;BME280;24026;49.446;8.576;2023-06-10T05:31:41;100226.38;;;24.84;37.80
38227;BME280;24026;49.446;8.576;2023-06-10T05:34:01;100230.69;;;24.85;37.62
38227;BME280;24026;49.446;8.576;2023-06-10T05:36:22;100226.84;;;24.86;37.49
38227;BME280;24026;49.446;8.576;2023-06-10T05:38:46;100231.16;;;24.87;37.70
38227;BME280;24026;49.446;8.576;2023-06-10T05:41:06;100229.22;;;24.87;37.65
38227;BME280;24026;49.446;8.576;2023-06-10T05:43:27;100237.84;;;24.89;37.70
38227;BME280;24026;49.446;8.576;2023-06-10T05:45:47;100234.78;;;24.91;37.76
38227;BME280;24026;49.446;8.576;2023-06-10T05:48:07;100242.56;;;24.92;37.62
38227;BME280;24026;49.446;8.576;2023-06-10T05:50:28;100240.31;;;24.94;37.47
38227;BME280;24026;49.446;8.576;2023-06-10T05:52:48;100245.41;;;24.96;37.72
38227;BME280;24026;49.446;8.576;2023-06-10T05:55:09;100245.84;;;24.98;37.55
38227;BME280;24026;49.446;8.576;2023-06-10T05:57:30;100242.00;;;24.99;37.73
38227;BME280;24026;49.446;8.576;2023-06-10T05:59:50;100256.84;;;25.02;37.60
38227;BME280;24026;49.446;8.576;2023-06-10T06:02:10;100251.84;;;25.04;37.62
38227;BME280;24026;49.446;8.576;2023-06-10T06:04:31;100255.00;;;25.06;37.42
38227;BME280;24026;49.446;8.576;2023-06-10T06:06:52;100257.03;;;25.09;37.46
38227;BME280;24026;49.446;8.576;2023-06-10T06:09:12;100247.75;;;25.10;37.66
38227;BME280;24026;49.446;8.576;2023-06-10T06:11:34;100252.53;;;25.13;37.57
38227;BME280;24026;49.446;8.576;2023-06-10T06:13:54;100251.38;;;25.14;37.47
38227;BME280;24026;49.446;8.576;2023-06-10T06:16:16;100258.84;;;25.17;37.59
38227;BME280;24026;49.446;8.576;2023-06-10T06:18:38;100255.78;;;25.19;37.33
38227;BME280;24026;49.446;8.576;2023-06-10T06:20:58;100257.38;;;25.20;37.52
38227;BME280;24026;49.446;8.576;2023-06-10T06:23:19;100254.31;;;25.21;37.34
38227;BME280;24026;49.446;8.576;2023-06-10T06:25:39;100251.25;;;25.23;37.24
38227;BME280;24026;49.446;8.576;2023-06-10T06:27:59;100247.72;;;25.22;37.81
38227;BME280;24026;49.446;8.576;2023-06-10T06:30:20;100251.25;;;25.23;37.38
38227;BME280;24026;49.446;8.576;2023-06-10T06:32:40;100250.91;;;25.24;37.46
38227;BME280;24026;49.446;8.576;2023-06-10T06:35:01;100257.91;;;25.25;37.45
38227;BME280;24026;49.446;8.576;2023-06-10T06:37:25;100252.94;;;25.27;37.33
38227;BME280;24026;49.446;8.576;2023-06-10T06:39:46;100256.47;;;25.28;37.71
38227;BME280;24026;49.446;8.576;2023-06-10T06:42:06;100259.97;;;25.28;37.36
38227;BME280;24026;49.446;8.576;2023-06-10T06:44:27;100261.56;;;25.29;37.77
38227;BME280;24026;49.446;8.576;2023-06-10T06:46:47;100260.44;;;25.30;37.87
38227;BME280;24026;49.446;8.576;2023-06-10T06:49:08;100267.47;;;25.31;37.75
38227;BME280;24026;49.446;8.576;2023-06-10T06:51:28;100260.88;;;25.32;37.86
38227;BME280;24026;49.446;8.576;2023-06-10T06:53:48;100261.34;;;25.35;38.01
38227;BME280;24026;49.446;8.576;2023-06-10T06:56:12;100265.63;;;25.36;38.23
38227;BME280;24026;49.446;8.576;2023-06-10T06:58:32;100264.50;;;25.37;38.27
38227;BME280;24026;49.446;8.576;2023-06-10T07:00:52;100266.88;;;25.38;38.12
38227;BME280;24026;49.446;8.576;2023-06-10T07:03:13;100266.19;;;25.41;38.35
38227;BME280;24026;49.446;8.576;2023-06-10T07:05:33;100264.25;;;25.42;38.32
38227;BME280;24026;49.446;8.576;2023-06-10T07:07:54;100263.13;;;25.43;38.12
38227;BME280;24026;49.446;8.576;2023-06-10T07:10:17;100262.78;;;25.44;38.14
38227;BME280;24026;49.446;8.576;2023-06-10T07:12:38;100260.06;;;25.44;38.26
38227;BME280;24026;49.446;8.576;2023-06-10T07:14:58;100264.00;;;25.47;38.26
38227;BME280;24026;49.446;8.576;2023-06-10T07:17:18;100266.38;;;25.48;38.33
38227;BME280;24026;49.446;8.576;2023-06-10T07:19:39;100271.47;;;25.50;38.48
38227;BME280;24026;49.446;8.576;2023-06-10T07:21:59;100268.84;;;25.54;38.44
38227;BME280;24026;49.446;8.576;2023-06-10T07:24:20;100263.50;;;25.57;38.35
38227;BME280;24026;49.446;8.576;2023-06-10T07:26:41;100271.00;;;25.60;38.43
38227;BME280;24026;49.446;8.576;2023-06-10T07:29:01;100266.78;;;25.63;38.21
38227;BME280;24026;49.446;8.576;2023-06-10T07:31:23;100268.00;;;25.65;38.27
38227;BME280;24026;49.446;8.576;2023-06-10T07:33:43;100261.09;;;25.68;38.14
38227;BME280;24026;49.446;8.576;2023-06-10T07:36:04;100263.13;;;25.71;38.10
38227;BME280;24026;49.446;8.576;2023-06-10T07:38:27;100270.25;;;25.76;38.17
38227;BME280;24026;49.446;8.576;2023-06-10T07:40:47;100264.44;;;25.77;37.75
38227;BME280;24026;49.446;8.576;2023-06-10T07:43:08;100257.53;;;25.80;37.78
38227;BME280;24026;49.446;8.576;2023-06-10T07:45:28;100258.41;;;25.84;37.95
38227;BME280;24026;49.446;8.576;2023-06-10T07:47:48;100256.13;;;25.86;37.88
38227;BME280;24026;49.446;8.576;2023-06-10T07:50:09;100258.16;;;25.89;37.84
38227;BME280;24026;49.446;8.576;2023-06-10T07:52:30;100250.47;;;25.91;37.80
38227;BME280;24026;49.446;8.576;2023-06-10T07:54:51;100250.53;;;25.95;37.59
38227;BME280;24026;49.446;8.576;2023-06-10T07:57:12;100251.78;;;25.97;37.83
38227;BME280;24026;49.446;8.576;2023-06-10T07:59:32;100251.44;;;25.99;37.55
38227;BME280;24026;49.446;8.576;2023-06-10T08:01:53;100248.03;;;26.02;37.38
38227;BME280;24026;49.446;8.576;2023-06-10T08:04:13;100252.78;;;26.05;37.50
38227;BME280;24026;49.446;8.576;2023-06-10T08:06:34;100249.72;;;26.06;37.33
38227;BME280;24026;49.446;8.576;2023-06-10T08:08:54;100254.47;;;26.10;37.21
38227;BME280;24026;49.446;8.576;2023-06-10T08:11:15;100251.38;;;26.11;37.30
38227;BME280;24026;49.446;8.576;2023-06-10T08:13:35;100248.75;;;26.15;37.56
38227;BME280;24026;49.446;8.576;2023-06-10T08:15:55;100249.19;;;26.17;37.52
38227;BME280;24026;49.446;8.576;2023-06-10T08:18:16;100246.91;;;26.19;37.59
38227;BME280;24026;49.446;8.576;2023-06-10T08:20:36;100248.13;;;26.21;37.07
38227;BME280;24026;49.446;8.576;2023-06-10T08:22:56;100251.28;;;26.23;36.87
38227;BME280;24026;49.446;8.576;2023-06-10T08:25:17;100247.88;;;26.27;37.05
38227;BME280;24026;49.446;8.576;2023-06-10T08:27:37;100246.38;;;26.29;36.89
38227;BME280;24026;49.446;8.576;2023-06-10T08:29:58;100245.66;;;26.32;36.89
38227;BME280;24026;49.446;8.576;2023-06-10T08:32:20;100244.97;;;26.35;36.80
38227;BME280;24026;49.446;8.576;2023-06-10T08:34:41;100243.84;;;26.36;36.79
38227;BME280;24026;49.446;8.576;2023-06-10T08:37:02;100244.28;;;26.38;36.80
38227;BME280;24026;49.446;8.576;2023-06-10T08:39:23;100243.56;;;26.41;36.96
38227;BME280;24026;49.446;8.576;2023-06-10T08:41:47;100247.50;;;26.44;36.90
38227;BME280;24026;49.446;8.576;2023-06-10T08:44:28;100244.00;;;26.43;36.62
38227;BME280;24026;49.446;8.576;2023-06-10T08:46:49;100241.78;;;26.49;36.93
38227;BME280;24026;49.446;8.576;2023-06-10T08:49:10;100244.16;;;26.51;36.77
38227;BME280;24026;49.446;8.576;2023-06-10T08:51:32;100235.28;;;26.54;36.86
38227;BME280;24026;49.446;8.576;2023-06-10T08:54:01;100234.94;;;26.55;36.49
38227;BME280;24026;49.446;8.576;2023-06-10T08:56:24;100225.25;;;26.58;36.35
38227;BME280;24026;49.446;8.576;2023-06-10T08:58:47;100231.94;;;26.60;36.70
38227;BME280;24026;49.446;8.576;2023-06-10T09:01:08;100232.38;;;26.62;36.64
38227;BME280;24026;49.446;8.576;2023-06-10T09:03:30;100221.59;;;26.66;36.71
38227;BME280;24026;49.446;8.576;2023-06-10T09:05:50;100223.97;;;26.68;36.60
38227;BME280;24026;49.446;8.576;2023-06-10T09:08:11;100223.59;;;26.69;36.70
38227;BME280;24026;49.446;8.576;2023-06-10T09:10:32;100224.84;;;26.72;36.13
38227;BME280;24026;49.446;8.576;2023-06-10T09:12:53;100228.78;;;26.74;36.34
38227;BME280;24026;49.446;8.576;2023-06-10T09:15:13;100223.78;;;26.76;36.21
38227;BME280;24026;49.446;8.576;2023-06-10T09:17:34;100223.06;;;26.79;36.05
38227;BME280;24026;49.446;8.576;2023-06-10T09:19:57;100223.50;;;26.82;36.59
38227;BME280;24026;49.446;8.576;2023-06-10T09:22:17;100215.75;;;26.84;36.33
38227;BME280;24026;49.446;8.576;2023-06-10T09:24:39;100215.06;;;26.87;36.39
38227;BME280;24026;49.446;8.576;2023-06-10T09:27:06;100214.69;;;26.88;36.24
38227;BME280;24026;49.446;8.576;2023-06-10T09:29:27;100217.50;;;26.92;36.07
38227;BME280;24026;49.446;8.576;2023-06-10T09:31:48;100220.66;;;26.94;35.80
38227;BME280;24026;49.446;8.576;2023-06-10T09:34:11;100211.34;;;26.95;36.12
38227;BME280;24026;49.446;8.576;2023-06-10T09:36:33;100213.31;;;26.98;35.81
38227;BME280;24026;49.446;8.576;2023-06-10T09:38:56;100209.88;;;27.01;35.76
38227;BME280;24026;49.446;8.576;2023-06-10T09:41:17;100206.81;;;27.03;36.03
38227;BME280;24026;49.446;8.576;2023-06-10T09:43:41;100204.50;;;27.05;35.82
38227;BME280;24026;49.446;8.576;2023-06-10T09:46:02;100199.50;;;27.07;35.72
38227;BME280;24026;49.446;8.576;2023-06-10T09:48:23;100202.66;;;27.09;35.85
38227;BME280;24026;49.446;8.576;2023-06-10T09:50:44;100197.63;;;27.11;35.90
38227;BME280;24026;49.446;8.576;2023-06-10T09:53:06;100199.66;;;27.14;35.97
38227;BME280;24026;49.446;8.576;2023-06-10T09:55:26;100196.56;;;27.15;35.89
38227;BME280;24026;49.446;8.576;2023-06-10T09:57:49;100192.31;;;27.18;35.65
38227;BME280;24026;49.446;8.576;2023-06-10T10:00:11;100190.81;;;27.21;35.88
38227;BME280;24026;49.446;8.576;2023-06-10T10:02:32;100189.31;;;27.23;35.51
38227;BME280;24026;49.446;8.576;2023-06-10T10:04:52;100185.06;;;27.26;35.74
38227;BME280;24026;49.446;8.576;2023-06-10T10:07:13;100190.16;;;27.27;35.47
38227;BME280;24026;49.446;8.576;2023-06-10T10:09:36;100181.72;;;27.32;35.81
38227;BME280;24026;49.446;8.576;2023-06-10T10:11:57;100195.00;;;27.34;35.64
38227;BME280;24026;49.446;8.576;2023-06-10T10:14:18;100177.16;;;27.37;35.51
38227;BME280;24026;49.446;8.576;2023-06-10T10:16:41;100182.66;;;27.40;35.58
38227;BME280;24026;49.446;8.576;2023-06-10T10:19:10;100183.09;;;27.42;35.20
38227;BME280;24026;49.446;8.576;2023-06-10T10:21:36;100181.56;;;27.45;35.45
38227;BME280;24026;49.446;8.576;2023-06-10T10:24:01;100184.75;;;27.47;35.25
38227;BME280;24026;49.446;8.576;2023-06-10T10:26:23;100179.34;;;27.50;35.03
38227;BME280;24026;49.446;8.576;2023-06-10T10:28:52;100179.75;;;27.52;35.07
38227;BME280;24026;49.446;8.576;2023-06-10T10:31:16;100176.31;;;27.56;34.86
38227;BME280;24026;49.446;8.576;2023-06-10T10:34:00;100173.59;;;27.56;35.15
38227;BME280;24026;49.446;8.576;2023-06-10T10:36:21;100182.63;;;27.60;35.33
38227;BME280;24026;49.446;8.576;2023-06-10T10:38:42;100176.44;;;27.63;35.04
38227;BME280;24026;49.446;8.576;2023-06-10T10:41:04;100173.00;;;27.66;34.95
38227;BME280;24026;49.446;8.576;2023-06-10T10:43:26;100172.28;;;27.69;34.92
38227;BME280;24026;49.446;8.576;2023-06-10T10:46:01;100173.84;;;27.70;34.80
38227;BME280;24026;49.446;8.576;2023-06-10T10:48:21;100179.75;;;27.72;34.75
38227;BME280;24026;49.446;8.576;2023-06-10T10:50:42;100170.81;;;27.75;34.56
38227;BME280;24026;49.446;8.576;2023-06-10T10:53:04;100176.34;;;27.79;34.68
38227;BME280;24026;49.446;8.576;2023-06-10T10:55:25;100166.97;;;27.80;34.82
38227;BME280;24026;49.446;8.576;2023-06-10T10:58:06;100173.63;;;27.79;34.77
38227;BME280;24026;49.446;8.576;2023-06-10T11:00:31;100163.16;;;27.84;34.33
38227;BME280;24026;49.446;8.576;2023-06-10T11:02:51;100166.50;;;27.74;34.32
38227;BME280;24026;49.446;8.576;2023-06-10T11:05:16;100160.03;;;27.82;34.49
38227;BME280;24026;49.446;8.576;2023-06-10T11:07:37;100161.66;;;27.87;34.44
38227;BME280;24026;49.446;8.576;2023-06-10T11:10:11;100155.84;;;27.88;34.10
38227;BME280;24026;49.446;8.576;2023-06-10T11:12:49;100160.56;;;27.91;34.42
38227;BME280;24026;49.446;8.576;2023-06-10T11:15:32;100164.19;;;27.96;33.88
38227;BME280;24026;49.446;8.576;2023-06-10T11:18:20;100157.13;;;27.95;34.35
38227;BME280;24026;49.446;8.576;2023-06-10T11:23:10;100157.25;;;28.02;33.86
38227;BME280;24026;49.446;8.576;2023-06-10T11:25:40;100150.63;;;28.03;34.25
38227;BME280;24026;49.446;8.576;2023-06-10T11:28:00;100145.59;;;28.05;33.70
38227;BME280;24026;49.446;8.576;2023-06-10T11:30:25;100145.22;;;28.06;33.75
38227;BME280;24026;49.446;8.576;2023-06-10T11:32:50;100142.13;;;28.08;33.87
38227;BME280;24026;49.446;8.576;2023-06-10T11:35:11;100141.75;;;28.09;33.56
38227;BME280;24026;49.446;8.576;2023-06-10T11:37:32;100136.72;;;28.12;34.01
38227;BME280;24026;49.446;8.576;2023-06-10T11:39:56;100134.44;;;28.14;33.33
38227;BME280;24026;49.446;8.576;2023-06-10T11:42:17;100141.09;;;28.16;33.81
38227;BME280;24026;49.446;8.576;2023-06-10T11:44:37;100141.09;;;28.16;33.74
38227;BME280;24026;49.446;8.576;2023-06-10T11:46:58;100143.88;;;28.20;33.79
38227;BME280;24026;49.446;8.576;2023-06-10T11:49:20;100138.41;;;28.20;33.29
38227;BME280;24026;49.446;8.576;2023-06-10T11:51:41;100137.25;;;28.21;33.44
38227;BME280;24026;49.446;8.576;2023-06-10T11:54:09;100137.66;;;28.23;33.45
38227;BME280;24026;49.446;8.576;2023-06-10T11:56:30;100142.00;;;28.24;33.13
38227;BME280;24026;49.446;8.576;2023-06-10T11:58:58;100143.56;;;28.25;33.51
38227;BME280;24026;49.446;8.576;2023-06-10T12:01:25;100137.31;;;28.24;33.17
38227;BME280;24026;49.446;8.576;2023-06-10T12:03:46;100141.63;;;28.25;33.35
38227;BME280;24026;49.446;8.576;2023-06-10T12:06:07;100142.41;;;28.26;33.03
38227;BME280;24026;49.446;8.576;2023-06-10T12:08:27;100133.06;;;28.27;33.27
38227;BME280;24026;49.446;8.576;2023-06-10T12:10:48;100140.91;;;28.28;33.38
38227;BME280;24026;49.446;8.576;2023-06-10T12:13:09;100136.22;;;28.29;33.39
38227;BME280;24026;49.446;8.576;2023-06-10T12:15:29;100135.06;;;28.30;33.21
38227;BME280;24026;49.446;8.576;2023-06-10T12:17:50;100135.84;;;28.31;33.14
38227;BME280;24026;49.446;8.576;2023-06-10T12:20:30;100133.47;;;28.29;33.32
38227;BME280;24026;49.446;8.576;2023-06-10T12:22:53;100137.41;;;28.32;32.77
38227;BME280;24026;49.446;8.576;2023-06-10T12:25:13;100131.22;;;28.35;32.79
38227;BME280;24026;49.446;8.576;2023-06-10T12:27:35;100125.00;;;28.38;32.81